.
WxDataArchive / Data Records for 2010-07-13
2010-07-12 July 2010 2010-07-14

Data Records for Tuesday, 13 July 2010

Time	Temp	Chill	HIndex	Humid	Dewpt	 Wind 	HiWind	WindDir	Rain 	Barom 
-----	----	-----	------	-----	-----	------	------	-------	-----	----- 
00:00	73.0	73.0	73.0	80	66.5	0	0	---	0.00	29.789 
00:05	73.0	73.0	73.0	80	66.5	0	0	---	0.00	29.789 
00:10	72.8	72.8	72.8	80	66.3	0	0	---	0.00	29.789 
00:15	72.8	72.8	72.8	81	66.6	0	0	---	0.00	29.792 
00:20	72.7	72.7	72.7	81	66.5	0	0	---	0.00	29.792 
00:25	72.5	72.5	72.5	81	66.3	0	0	---	0.00	29.792 
00:30	72.5	72.5	72.5	81	66.3	0	0	---	0.00	29.791 
00:35	72.3	72.3	72.3	82	66.5	0	0	---	0.00	29.791 
00:40	72.1	72.1	72.1	82	66.3	0	0	---	0.00	29.791 
00:45	72.0	72.0	72.0	82	66.2	0	0	---	0.00	29.787 
00:50	71.8	71.8	71.8	83	66.3	0	0	---	0.00	29.787 
00:55	71.6	71.6	71.6	83	66.2	0	0	---	0.00	29.787 
01:00	71.5	71.5	71.5	83	66.1	0	0	---	0.00	29.790 
01:05	71.1	71.1	71.1	84	66.0	0	0	---	0.00	29.790 
01:10	70.9	70.9	70.9	84	65.8	0	0	---	0.00	29.790 
01:15	70.8	70.8	70.8	85	66.1	0	0	---	0.00	29.789 
01:20	70.6	70.6	70.6	85	65.9	0	0	---	0.00	29.789 
01:25	70.3	70.3	70.3	86	65.9	0	0	---	0.00	29.789 
01:30	70.1	70.1	70.1	86	65.7	0	0	---	0.00	29.789 
01:35	69.9	69.9	69.9	87	65.8	0	0	---	0.00	29.789 
01:40	69.6	69.6	69.6	87	65.6	0	0	---	0.00	29.789 
01:45	69.4	69.4	69.4	88	65.7	0	0	---	0.00	29.787 
01:50	69.3	69.3	69.3	88	65.6	0	0	---	0.00	29.787 
01:55	69.1	69.1	69.1	88	65.4	0	0	---	0.00	29.787 
02:00	68.9	68.9	68.9	89	65.5	0	0	---	0.00	29.795 
02:05	68.9	68.9	68.9	89	65.5	0	0	---	0.00	29.795 
02:10	68.8	68.8	68.8	89	65.4	0	0	---	0.00	29.795 
02:15	68.6	68.6	68.6	89	65.2	0	0	---	0.00	29.792 
02:20	68.4	68.4	68.4	90	65.3	0	0	---	0.00	29.792 
02:25	68.3	68.3	68.3	90	65.2	0	0	---	0.00	29.792 
02:30	68.3	68.3	68.3	90	65.2	0	0	---	0.00	29.796 
02:35	68.1	68.1	68.1	91	65.4	0	0	---	0.00	29.796 
02:40	68.1	68.1	68.1	91	65.4	0	0	---	0.00	29.796 
02:45	68.1	68.1	68.1	91	65.4	0	0	---	0.00	29.794 
02:50	67.9	67.9	67.9	91	65.2	0	0	---	0.00	29.794 
02:55	67.8	67.8	67.8	91	65.1	0	0	---	0.00	29.794 
03:00	67.8	67.8	67.8	92	65.4	0	0	---	0.00	29.791 
03:05	67.6	67.6	67.6	92	65.2	0	0	---	0.00	29.791 
03:10	67.4	67.4	67.4	92	65.0	0	0	---	0.00	29.791 
03:15	67.4	67.4	67.4	92	65.0	0	0	---	0.00	29.786 
03:20	67.3	67.3	67.3	92	64.9	0	0	---	0.00	29.786 
03:25	67.3	67.3	67.3	92	64.9	0	0	---	0.00	29.786 
03:30	67.3	67.3	67.3	92	64.9	0	0	---	0.00	29.779 
03:35	67.3	67.3	67.3	92	64.9	0	0	---	0.00	29.779 
03:40	67.3	67.3	67.3	93	65.2	0	0	---	0.00	29.779 
03:45	67.1	67.1	67.1	93	65.0	0	0	---	0.00	29.783 
03:50	67.1	67.1	67.1	93	65.0	0	0	---	0.00	29.783 
03:55	66.9	66.9	66.9	93	64.8	0	0	---	0.00	29.783 
04:00	67.1	67.1	67.1	93	65.0	0	0	---	0.00	29.786 
04:05	66.9	66.9	66.9	93	64.8	0	0	---	0.00	29.786 
04:10	66.9	66.9	66.9	93	64.8	0	0	---	0.00	29.786 
04:15	66.8	66.8	66.8	93	64.7	0	0	---	0.00	29.787 
04:20	66.8	66.8	66.8	93	64.7	0	0	---	0.00	29.787 
04:25	66.6	66.6	66.6	94	64.8	0	0	---	0.00	29.787 
04:30	66.6	66.6	66.6	94	64.8	0	0	---	0.00	29.789 
04:35	66.6	66.6	66.6	94	64.8	0	0	---	0.00	29.789 
04:40	66.6	66.6	66.6	94	64.8	0	0	---	0.00	29.789 
04:45	66.4	66.4	66.4	94	64.6	0	0	---	0.00	29.790 
04:50	66.6	66.6	66.6	94	64.8	0	0	---	0.00	29.790 
04:55	66.8	66.8	66.8	94	65.0	0	0	---	0.00	29.790 
05:00	66.8	66.8	66.8	94	65.0	0	0	---	0.00	29.794 
05:05	66.8	66.8	66.8	94	65.0	0	0	---	0.00	29.794 
05:10	66.9	66.9	66.9	94	65.1	0	0	---	0.00	29.794 
05:15	66.9	66.9	66.9	94	65.1	0	0	---	0.00	29.794 
05:20	66.9	66.9	66.9	94	65.1	0	0	---	0.00	29.794 
05:25	67.1	67.1	67.1	94	65.3	0	0	---	0.00	29.794 
05:30	67.1	67.1	67.1	94	65.3	0	0	---	0.00	29.787 
05:35	67.1	67.1	67.1	94	65.3	0	0	---	0.00	29.787 
05:40	67.1	67.1	67.1	94	65.3	0	0	---	0.00	29.787 
05:45	67.3	67.3	67.3	95	65.8	0	0	---	0.00	29.786 
05:50	67.3	67.3	67.3	95	65.8	0	0	---	0.00	29.786 
05:55	67.3	67.3	67.3	95	65.8	0	0	---	0.00	29.786 
06:00	67.4	67.4	67.4	95	65.9	0	0	---	0.00	29.790 
06:05	67.4	67.4	67.4	95	65.9	0	0	---	0.00	29.790 
06:10	67.4	67.4	67.4	95	65.9	0	0	---	0.00	29.790 
06:15	67.4	67.4	67.4	95	65.9	0	0	---	0.00	29.800 
06:20	67.4	67.4	67.4	95	65.9	0	0	---	0.00	29.800 
06:25	67.4	67.4	67.4	95	65.9	0	0	---	0.00	29.800 
06:30	67.4	67.4	67.4	95	65.9	0	0	---	0.00	29.805 
06:35	67.4	67.4	67.4	95	65.9	0	0	---	0.00	29.805 
06:40	67.4	67.4	67.4	95	65.9	0	0	---	0.00	29.805 
06:45	67.4	67.4	67.4	95	65.9	0	0	---	0.00	29.805 
06:50	67.4	67.4	67.4	95	65.9	0	0	---	0.00	29.805 
06:55	67.6	67.6	67.6	95	66.1	0	0	---	0.00	29.805 
07:00	67.6	67.6	67.6	95	66.1	0	0	---	0.00	29.806 
07:05	67.8	67.8	67.8	94	66.0	0	0	---	0.00	29.806 
07:10	67.9	67.9	67.9	94	66.1	0	0	---	0.00	29.806 
07:15	68.1	68.1	68.1	94	66.3	0	0	---	0.00	29.805 
07:20	68.3	68.3	68.3	94	66.5	0	0	---	0.00	29.805 
07:25	68.4	68.4	68.4	94	66.6	0	0	---	0.00	29.805 
07:30	68.6	68.6	68.6	94	66.8	0	0	---	0.00	29.804 
07:35	68.8	68.8	68.8	93	66.7	0	0	---	0.00	29.804 
07:40	68.9	68.9	68.9	93	66.8	0	0	---	0.00	29.804 
07:45	69.1	69.1	69.1	92	66.7	0	0	---	0.00	29.818 
07:50	69.4	69.4	69.4	92	67.0	0	0	---	0.00	29.818 
07:55	69.6	69.6	69.6	91	66.8	0	0	---	0.00	29.818 
08:00	70.1	70.1	70.1	90	67.0	0	0	---	0.00	29.821 
08:05	70.4	70.4	70.4	88	66.7	0	0	---	0.00	29.821 
08:10	70.8	70.8	70.8	86	66.4	0	0	---	0.00	29.821 
08:15	71.1	71.1	71.1	85	66.4	0	0	---	0.00	29.823 
08:20	71.5	71.5	71.5	84	66.4	0	0	---	0.00	29.823 
08:25	71.6	71.6	71.6	83	66.2	0	1	292	0.00	29.823 
08:30	72.1	72.1	72.1	82	66.3	0	1	292	0.00	29.830 
08:35	72.5	72.5	72.5	81	66.3	0	1	292	0.00	29.830 
08:40	72.8	72.8	72.8	81	66.6	0	0	---	0.00	29.830 
08:45	73.0	73.0	73.0	79	66.1	0	1	292	0.00	29.834 
08:50	73.2	73.2	73.2	79	66.3	0	1	292	0.00	29.834 
08:55	73.3	73.3	73.3	80	66.7	0	1	292	0.00	29.834 
09:00	73.3	73.3	73.3	80	66.7	0	1	292	0.00	29.834 
09:05	73.3	73.3	73.3	79	66.4	0	2	292	0.00	29.834 
09:10	73.3	73.3	73.3	80	66.7	0	1	292	0.00	29.834 
09:15	73.3	73.3	73.3	80	66.7	0	0	---	0.00	29.849 
09:20	73.3	73.3	73.3	80	66.7	0	2	292	0.00	29.849 
09:25	73.3	73.3	73.3	80	66.7	0	0	---	0.00	29.849 
09:30	73.5	73.5	73.5	81	67.3	0	0	---	0.00	29.849 
09:35	73.5	73.5	73.5	80	66.9	0	0	---	0.00	29.849 
09:40	73.7	73.7	73.7	80	67.1	0	2	292	0.00	29.849 
09:45	73.9	73.9	73.9	78	66.6	0	2	292	0.00	29.843 
09:50	74.2	74.2	74.2	80	67.6	0	0	---	0.00	29.843 
09:55	74.4	74.4	74.4	78	67.1	0	0	---	0.00	29.843 
10:00	74.4	74.4	74.4	77	66.7	0	1	292	0.00	29.850 
10:05	74.6	74.6	74.6	76	66.5	0	1	292	0.00	29.850 
10:10	74.6	74.6	74.6	76	66.5	0	1	292	0.00	29.850 
10:15	74.7	74.7	74.7	76	66.6	0	0	---	0.00	29.852 
10:20	74.9	74.9	74.9	76	66.8	0	0	---	0.00	29.852 
10:25	75.1	75.1	76.2	76	67.0	0	1	292	0.00	29.852 
10:30	75.3	75.3	76.4	76	67.2	0	1	292	0.00	29.855 
10:35	75.4	75.4	76.6	75	66.9	0	1	292	0.00	29.855 
10:40	75.6	75.6	76.9	75	67.1	0	1	292	0.00	29.855 
10:45	75.6	75.6	77.0	74	66.7	0	1	292	0.00	29.854 
10:50	75.6	75.6	76.9	75	67.1	0	1	292	0.00	29.854 
10:55	75.4	75.4	76.5	76	67.3	0	0	---	0.00	29.854 
11:00	75.6	75.6	76.9	75	67.1	0	1	292	0.00	29.853 
11:05	75.8	75.8	77.1	75	67.3	0	0	---	0.00	29.853 
11:10	75.8	75.8	77.1	75	67.3	0	1	292	0.00	29.853 
11:15	75.8	75.8	77.3	73	66.5	0	0	---	0.00	29.854 
11:20	75.8	75.8	77.3	73	66.5	0	1	292	0.00	29.854 
11:25	75.8	75.8	77.2	74	66.9	0	0	---	0.00	29.854 
11:30	76.0	76.0	77.5	73	66.7	0	0	---	0.00	29.854 
11:35	76.1	76.1	77.6	73	66.8	1	3	292	0.00	29.854 
11:40	76.1	76.1	77.6	73	66.8	0	1	292	0.00	29.854 
11:45	76.1	76.1	77.6	73	66.8	0	1	292	0.00	29.857 
11:50	76.1	76.1	77.6	73	66.8	0	1	292	0.00	29.857 
11:55	76.1	76.1	77.6	73	66.8	0	1	292	0.00	29.857 
12:00	76.1	76.1	77.6	73	66.8	0	2	292	0.00	29.853 
12:05	76.5	76.5	78.1	74	67.6	0	1	292	0.00	29.853 
12:10	76.7	76.7	78.3	73	67.4	0	1	292	0.00	29.853 
12:15	77.0	77.0	78.7	72	67.3	0	1	292	0.00	29.852 
12:20	77.2	77.2	79.0	70	66.6	0	2	292	0.00	29.852 
12:25	77.4	77.4	79.3	70	66.8	0	1	292	0.00	29.852 
12:30	77.6	77.6	79.5	71	67.4	0	1	292	0.00	29.850 
12:35	77.7	77.7	79.6	70	67.1	0	1	292	0.00	29.850 
12:40	77.7	77.7	79.6	69	66.7	0	1	292	0.00	29.850 
12:45	77.7	77.7	79.6	69	66.7	0	1	292	0.00	29.851 
12:50	77.7	77.7	79.6	69	66.7	0	1	292	0.00	29.851 
12:55	78.1	78.1	80.1	68	66.7	0	1	292	0.00	29.851 
13:00	78.6	78.6	80.7	68	67.1	0	1	292	0.00	29.849 
13:05	79.0	79.0	81.3	68	67.5	0	1	292	0.00	29.849 
13:10	79.4	79.4	81.6	65	66.6	0	1	292	0.00	29.849 
13:15	79.4	79.4	81.6	66	67.0	0	1	292	0.00	29.845 
13:20	79.6	79.6	81.9	66	67.2	0	1	292	0.00	29.845 
13:25	79.9	79.9	82.2	65	67.1	0	2	292	0.00	29.845 
13:30	80.1	80.1	82.2	62	65.9	0	1	292	0.00	29.850 
13:35	79.9	79.9	81.6	59	64.3	0	1	292	0.00	29.850 
13:40	80.3	80.3	82.1	59	64.6	0	2	292	0.00	29.850 
13:45	81.4	81.4	84.1	63	67.6	0	2	292	0.00	29.852 
13:50	82.0	82.0	84.2	59	66.2	1	3	292	0.00	29.852 
13:55	82.0	82.0	84.1	58	65.7	0	2	292	0.00	29.852 
14:00	81.8	81.8	84.1	60	66.5	0	3	292	0.00	29.856 
14:05	81.4	81.4	83.3	58	65.2	0	1	292	0.00	29.856 
14:10	81.1	81.1	83.0	59	65.4	0	1	292	0.00	29.856 
14:15	80.9	80.9	82.8	59	65.2	0	1	292	0.00	29.861 
14:20	80.9	80.9	82.9	60	65.7	0	1	292	0.00	29.861 
14:25	80.9	80.9	82.9	60	65.7	0	1	292	0.00	29.861 
14:30	80.9	80.9	82.8	59	65.2	0	1	292	0.00	29.863 
14:35	80.9	80.9	82.8	59	65.2	0	1	292	0.00	29.863 
14:40	81.2	81.2	83.0	58	65.0	0	1	292	0.00	29.863 
14:45	81.8	81.8	84.1	60	66.5	0	2	292	0.00	29.863 
14:50	82.4	82.4	84.8	59	66.6	0	1	292	0.00	29.863 
14:55	83.0	83.0	85.1	56	65.7	1	4	292	0.00	29.863 
15:00	82.8	82.8	84.6	55	65.0	0	2	338	0.00	29.863 
15:05	82.4	82.4	84.2	56	65.1	0	1	338	0.00	29.863 
15:10	82.4	82.4	84.2	56	65.1	0	2	338	0.00	29.863 
15:15	82.6	82.6	84.7	57	65.8	1	3	338	0.00	29.864 
15:20	83.0	83.0	84.5	53	64.1	0	3	292	0.00	29.864 
15:25	83.2	83.2	84.3	51	63.2	0	3	292	0.00	29.864 
15:30	83.2	83.2	84.9	54	64.8	0	2	292	0.00	29.864 
15:35	83.4	83.4	85.2	54	65.0	0	2	292	0.00	29.864 
15:40	83.2	83.2	84.9	54	64.8	0	1	292	0.00	29.864 
15:45	82.8	82.8	84.4	54	64.4	0	2	292	0.00	29.867 
15:50	82.4	82.4	83.4	51	62.4	0	1	292	0.00	29.867 
15:55	82.4	82.4	83.4	51	62.4	1	2	292	0.00	29.867 
16:00	82.8	82.8	84.2	53	63.9	0	2	292	0.00	29.867 
16:05	83.8	83.8	86.2	56	66.4	0	3	292	0.00	29.867 
16:10	84.3	84.3	87.0	56	66.9	1	3	270	0.00	29.867 
16:15	84.3	84.3	86.2	53	65.3	1	2	270	0.00	29.865 
16:20	84.3	84.3	85.7	51	64.2	0	1	270	0.00	29.865 
16:25	84.3	84.3	85.7	51	64.2	0	2	270	0.00	29.865 
16:30	84.3	84.3	85.7	51	64.2	0	1	270	0.00	29.861 
16:35	84.3	84.3	85.5	50	63.6	1	2	270	0.00	29.861 
16:40	84.7	84.7	86.3	51	64.5	0	2	270	0.00	29.861 
16:45	84.7	84.7	86.0	50	64.0	0	2	270	0.00	29.859 
16:50	84.5	84.5	86.3	52	64.9	1	4	68	0.00	29.859 
16:55	84.5	84.5	85.8	50	63.8	1	3	248	0.00	29.859 
17:00	84.5	84.5	86.3	52	64.9	0	1	248	0.00	29.860 
17:05	84.1	84.1	85.0	49	62.8	0	1	248	0.00	29.860 
17:10	84.1	84.1	85.0	49	62.8	0	1	248	0.00	29.860 
17:15	84.5	84.5	85.6	49	63.2	0	1	225	0.00	29.862 
17:20	84.7	84.7	86.3	51	64.5	1	3	90	0.00	29.862 
17:25	84.9	84.9	85.8	48	63.0	0	3	90	0.00	29.862 
17:30	84.9	84.9	85.6	47	62.4	0	3	90	0.00	29.858 
17:35	84.7	84.7	85.2	46	61.6	0	2	0	0.00	29.858 
17:40	84.9	84.9	85.4	46	61.8	0	2	338	0.00	29.858 
17:45	84.9	84.9	85.2	45	61.2	0	2	338	0.00	29.859 
17:50	84.9	84.9	85.0	44	60.5	0	1	338	0.00	29.859 
17:55	84.9	84.9	85.0	44	60.5	1	2	292	0.00	29.859 
18:00	84.9	84.9	85.6	47	62.4	0	4	135	0.00	29.855 
18:05	84.5	84.5	85.3	48	62.6	0	2	45	0.00	29.855 
18:10	84.1	84.1	84.6	47	61.7	0	3	90	0.00	29.855 
18:15	84.0	84.0	84.7	48	62.2	0	1	90	0.00	29.853 
18:20	83.6	83.6	84.6	50	63.0	0	1	90	0.00	29.853 
18:25	83.0	83.0	83.9	50	62.4	0	1	90	0.00	29.853 
18:30	82.4	82.4	83.2	50	61.9	0	1	90	0.00	29.853 
18:35	82.0	82.0	83.1	52	62.6	0	1	90	0.00	29.853 
18:40	82.0	82.0	83.2	53	63.2	0	1	90	0.00	29.853 
18:45	81.6	81.6	82.8	53	62.8	0	1	90	0.00	29.863 
18:50	81.6	81.6	82.9	54	63.3	0	1	90	0.00	29.863 
18:55	81.6	81.6	82.9	54	63.3	0	0	---	0.00	29.863 
19:00	81.6	81.6	82.9	54	63.3	0	0	---	0.00	29.869 
19:05	81.6	81.6	82.9	54	63.3	0	1	90	0.00	29.869 
19:10	81.8	81.8	83.3	55	64.0	0	1	90	0.00	29.869 
19:15	81.8	81.8	83.3	55	64.0	0	0	---	0.00	29.871 
19:20	82.0	82.0	83.7	56	64.7	0	1	90	0.00	29.871 
19:25	82.0	82.0	83.6	55	64.2	0	1	90	0.00	29.871 
19:30	81.8	81.8	83.3	55	64.0	0	1	90	0.00	29.877 
19:35	81.8	81.8	83.5	56	64.5	0	1	90	0.00	29.877 
19:40	81.6	81.6	82.9	54	63.3	0	1	90	0.00	29.877 
19:45	81.4	81.4	82.8	55	63.7	0	0	---	0.00	29.883 
19:50	81.2	81.2	82.6	55	63.5	0	0	---	0.00	29.883 
19:55	81.1	81.1	82.5	55	63.4	0	0	---	0.00	29.883 
20:00	81.1	81.1	82.6	56	63.9	0	0	---	0.00	29.883 
20:05	81.1	81.1	82.6	56	63.9	0	0	---	0.00	29.883 
20:10	81.1	81.1	82.6	56	63.9	0	0	---	0.00	29.883 
20:15	80.9	80.9	82.3	55	63.2	0	1	90	0.00	29.881 
20:20	80.7	80.7	82.2	56	63.5	0	0	---	0.00	29.881 
20:25	80.7	80.7	82.2	56	63.5	0	0	---	0.00	29.881 
20:30	80.5	80.5	82.1	57	63.8	0	0	---	0.00	29.881 
20:35	80.1	80.1	81.7	58	64.0	0	0	---	0.00	29.881 
20:40	79.8	79.8	81.4	58	63.7	0	0	---	0.00	29.881 
20:45	79.4	79.4	81.0	59	63.8	0	0	---	0.00	29.884 
20:50	79.2	79.2	80.9	60	64.1	0	0	---	0.00	29.884 
20:55	78.8	78.8	80.5	61	64.2	0	0	---	0.00	29.884 
21:00	78.5	78.5	80.3	62	64.4	0	0	---	0.00	29.887 
21:05	78.3	78.3	80.1	62	64.2	0	0	---	0.00	29.887 
21:10	77.9	77.9	79.6	62	63.8	0	0	---	0.00	29.887 
21:15	77.7	77.7	79.5	63	64.1	0	0	---	0.00	29.889 
21:20	77.4	77.4	79.2	64	64.2	0	0	---	0.00	29.889 
21:25	77.2	77.2	79.0	65	64.5	0	0	---	0.00	29.889 
21:30	76.8	76.8	78.6	66	64.6	0	0	---	0.00	29.894 
21:35	76.8	76.8	78.6	67	65.0	0	0	---	0.00	29.894 
21:40	76.5	76.5	78.3	67	64.7	0	0	---	0.00	29.894 
21:45	76.3	76.3	78.1	67	64.5	0	0	---	0.00	29.898 
21:50	76.0	76.0	77.7	68	64.7	0	0	---	0.00	29.898 
21:55	75.8	75.8	77.5	69	64.9	0	0	---	0.00	29.898 
22:00	75.4	75.4	77.1	69	64.5	0	0	---	0.00	29.908 
22:05	75.3	75.3	77.0	70	64.8	0	0	---	0.00	29.908 
22:10	75.1	75.1	76.7	71	65.0	0	0	---	0.00	29.908 
22:15	75.1	75.1	76.6	72	65.4	0	1	90	0.00	29.916 
22:20	75.3	75.3	76.8	72	65.6	0	0	---	0.00	29.916 
22:25	75.3	75.3	76.8	72	65.6	0	0	---	0.00	29.916 
22:30	75.3	75.3	76.7	73	66.0	2	5	90	0.00	29.919 
22:35	75.1	75.1	76.4	74	66.2	1	3	112	0.00	29.919 
22:40	74.9	74.9	74.9	75	66.4	0	2	112	0.00	29.919 
22:45	74.6	74.6	74.6	76	66.5	0	1	112	0.00	29.928 
22:50	74.2	74.2	74.2	77	66.5	0	1	112	0.00	29.928 
22:55	73.9	73.9	73.9	77	66.2	0	0	---	0.00	29.928 
23:00	73.5	73.5	73.5	78	66.2	0	0	---	0.00	29.929 
23:05	73.2	73.2	73.2	79	66.3	0	1	112	0.00	29.929 
23:10	72.8	72.8	72.8	79	65.9	0	0	---	0.00	29.929 
23:15	72.7	72.7	72.7	79	65.8	0	0	---	0.00	29.935 
23:20	72.5	72.5	72.5	81	66.3	0	2	112	0.00	29.935 
23:25	72.3	72.3	72.3	81	66.1	0	2	112	0.00	29.935 
23:30	72.3	72.3	72.3	81	66.1	0	0	---	0.00	29.942 
23:35	72.1	72.1	72.1	81	65.9	0	1	112	0.00	29.942 
23:40	72.0	72.0	72.0	82	66.2	0	1	112	0.00	29.942 
23:45	72.0	72.0	72.0	82	66.2	0	0	---	0.00	29.946 
23:50	71.8	71.8	71.8	82	66.0	0	0	---	0.00	29.946 
23:55	71.6	71.6	71.6	83	66.2	0	2	112	0.00	29.946 

CoCoRaHS
IN-AL-39
A2 Web Hosting
Creative Commons License
GoDaddy
search engine by freefind advanced

loaded 2018-11-13 21:14:21 • last modified 2010-11-18 10:43:29
Privacy PolicyDisclaimer
• wx.awcolley.com is powered by PmWiki v.2002016 •
• all content (unless otherwise noted) © 2018 A W Colley